Time;durP1;ratioP1;P1;durP2;ratioP2;P2;SDS_P1;SDS_P2;PMS_P1;PMS_P2;Temp;Humidity;BMP_temperature;BMP_pressure;BME280_temperature;BME280_humidity;BME280_pressure;Samples;Min_cycle;Max_cycle;Signal;HPM_P1;HPM_P2
2023/11/30 00:00:55;;;;;;;11.20;8.95;;;;;;;-3.26;100.00;96920.34;1223764;75;2930254;-65
2023/11/30 00:03:27;;;;;;;11.65;9.40;;;;;;;-3.33;100.00;96917.75;1225287;75;2921444;-64
2023/11/30 00:06:02;;;;;;;14.15;9.80;;;;;;;-3.23;100.00;96921.47;1224594;75;2918668;-63
2023/11/30 00:08:35;;;;;;;10.65;8.75;;;;;;;-3.18;100.00;96921.00;1223580;75;2932925;-63
2023/11/30 00:11:11;;;;;;;10.80;8.35;;;;;;;-3.14;100.00;96908.34;1224390;75;2931959;-65
2023/11/30 00:13:44;;;;;;;10.85;8.50;;;;;;;-3.14;100.00;96911.03;1223923;75;2921742;-65
2023/11/30 00:16:16;;;;;;;10.20;8.10;;;;;;;-3.16;100.00;96909.91;1224335;75;2924537;-66
2023/11/30 00:18:49;;;;;;;8.20;6.85;;;;;;;-3.11;100.00;96912.88;1224142;75;2928345;-66
2023/11/30 00:21:24;;;;;;;9.35;7.20;;;;;;;-3.12;100.00;96908.72;1224438;75;2921964;-63
2023/11/30 00:23:57;;;;;;;9.50;7.25;;;;;;;-3.13;100.00;96923.25;1224327;75;2933465;-63
2023/11/30 00:26:30;;;;;;;7.85;6.35;;;;;;;-3.07;100.00;96912.84;1224380;75;2917104;-64
2023/11/30 00:29:02;;;;;;;17.20;13.00;;;;;;;-3.33;100.00;96912.41;1224415;75;2927366;-63
2023/11/30 00:31:35;;;;;;;21.30;16.00;;;;;;;-3.29;100.00;96902.44;1223774;75;2926975;-64
2023/11/30 00:34:08;;;;;;;18.40;13.40;;;;;;;-3.10;100.00;96900.25;1224418;75;2925124;-65
2023/11/30 00:36:43;;;;;;;14.00;11.90;;;;;;;-3.11;100.00;96902.19;1224426;75;2926888;-63
2023/11/30 00:39:15;;;;;;;15.05;11.45;;;;;;;-3.12;100.00;96908.72;1224139;75;2929309;-63
2023/11/30 00:41:48;;;;;;;20.65;15.30;;;;;;;-3.30;100.00;96903.56;1223323;75;2924385;-63
2023/11/30 00:44:21;;;;;;;18.20;14.65;;;;;;;-3.05;100.00;96900.59;1224127;75;2919080;-61
2023/11/30 00:46:54;;;;;;;18.30;13.65;;;;;;;-2.88;100.00;96908.78;1223746;75;2946825;-63
2023/11/30 00:49:26;;;;;;;13.10;11.10;;;;;;;-3.03;100.00;96916.22;1223410;75;2923524;-65
2023/11/30 00:52:01;;;;;;;11.80;9.45;;;;;;;-2.98;100.00;96902.41;1224088;67;2932580;-65
2023/11/30 00:54:34;;;;;;;11.25;9.45;;;;;;;-2.90;100.00;96898.47;1223849;75;2923686;-64
2023/11/30 00:57:07;;;;;;;12.80;10.70;;;;;;;-3.05;100.00;96908.59;1223688;75;2919985;-66
2023/11/30 00:59:40;;;;;;;11.45;10.00;;;;;;;-2.90;100.00;96903.06;1224209;75;2926587;-66
2023/11/30 01:02:13;;;;;;;11.05;9.50;;;;;;;-2.91;100.00;96896.16;1224173;75;2928166;-63
2023/11/30 01:04:45;;;;;;;11.50;8.85;;;;;;;-2.86;100.00;96893.03;1223997;75;2921437;-66
2023/11/30 01:07:20;;;;;;;12.15;9.75;;;;;;;-2.81;100.00;96908.69;1224020;75;2926256;-64
2023/11/30 01:09:53;;;;;;;11.00;8.80;;;;;;;-2.90;100.00;96911.09;1224151;75;2930692;-64
2023/11/30 01:12:26;;;;;;;9.35;8.00;;;;;;;-2.74;100.00;96919.28;1223808;75;2931205;-65
2023/11/30 01:14:59;;;;;;;9.40;8.20;;;;;;;-2.68;100.00;96914.97;1223617;75;2932068;-63
2023/11/30 01:17:31;;;;;;;8.05;7.05;;;;;;;-2.70;100.00;96903.91;1224310;75;2926815;-66
2023/11/30 01:20:04;;;;;;;10.00;7.55;;;;;;;-2.67;100.00;96907.69;1224458;75;2926951;-65
2023/11/30 01:22:39;;;;;;;8.15;6.40;;;;;;;-2.65;100.00;96897.31;1223689;75;2924318;-63
2023/11/30 01:25:12;;;;;;;10.00;8.30;;;;;;;-2.68;100.00;96895.47;1224170;75;2929920;-65
2023/11/30 01:27:45;;;;;;;9.00;7.25;;;;;;;-2.57;100.00;96882.66;1223997;75;2927351;-68
2023/11/30 01:30:15;;;;;;;11.20;8.10;;;;;;;-2.58;100.00;96881.88;1224503;75;2920295;-65
2023/11/30 01:32:48;;;;;;;9.95;7.95;;;;;;;-2.62;100.00;96877.78;1224850;75;2916227;-62
2023/11/30 01:35:20;;;;;;;11.30;8.65;;;;;;;-2.53;100.00;96869.97;1224773;75;2925196;-67
2023/11/30 01:37:55;;;;;;;10.20;7.85;;;;;;;-2.55;100.00;96866.16;1224448;75;2916352;-64
2023/11/30 01:40:28;;;;;;;8.65;7.50;;;;;;;-2.49;100.00;96851.16;1224221;75;2925860;-67
2023/11/30 01:43:00;;;;;;;10.10;7.70;;;;;;;-2.47;100.00;96856.88;1224370;75;2926943;-65
2023/11/30 01:45:33;;;;;;;8.70;6.85;;;;;;;-2.45;100.00;96860.66;1223801;75;2925954;-65
2023/11/30 01:48:06;;;;;;;9.15;7.15;;;;;;;-2.41;100.00;96852.53;1224489;75;2923382;-63
2023/11/30 01:50:38;;;;;;;8.35;7.00;;;;;;;-2.50;100.00;96853.09;1224509;75;2924501;-63
2023/11/30 01:53:14;;;;;;;9.35;7.75;;;;;;;-2.52;100.00;96851.97;1224409;75;2928194;-65
2023/11/30 01:55:48;;;;;;;10.25;8.25;;;;;;;-2.48;100.00;96858.75;1224094;75;2926961;-63
2023/11/30 01:58:21;;;;;;;9.75;7.70;;;;;;;-2.50;100.00;96853.09;1225116;75;2921424;-65
2023/11/30 02:00:53;;;;;;;11.55;9.40;;;;;;;-2.57;100.00;96858.56;1224392;75;2925115;-63
2023/11/30 02:03:27;;;;;;;12.35;10.55;;;;;;;-2.44;100.00;96851.44;1224287;75;2935370;-63
2023/11/30 02:06:00;;;;;;;13.35;10.65;;;;;;;-2.38;100.00;96851.75;1224504;75;2923993;-64
2023/11/30 02:08:35;;;;;;;11.45;9.55;;;;;;;-2.38;100.00;96847.13;1224770;75;2923954;-61
2023/11/30 02:11:08;;;;;;;9.85;8.85;;;;;;;-2.36;100.00;96836.75;1224661;75;2917723;-65
2023/11/30 02:13:41;;;;;;;10.10;7.90;;;;;;;-2.36;100.00;96833.31;1224286;75;2919465;-62
2023/11/30 02:16:14;;;;;;;11.65;8.75;;;;;;;-2.55;100.00;96832.09;1224248;75;2927925;-63
2023/11/30 02:18:46;;;;;;;14.90;11.75;;;;;;;-2.55;100.00;96831.34;1224749;75;2925413;-61
2023/11/30 02:21:19;;;;;;;12.95;10.40;;;;;;;-2.53;100.00;96815.63;1224317;75;2921611;-63
2023/11/30 02:23:55;;;;;;;17.80;14.20;;;;;;;-2.75;100.00;96826.69;1225036;75;2924057;-62
2023/11/30 02:26:27;;;;;;;17.35;13.20;;;;;;;-2.55;100.00;96817.94;1224737;75;2936041;-65
2023/11/30 02:29:00;;;;;;;12.55;10.25;;;;;;;-2.46;100.00;96813.56;1224744;75;2930724;-63
2023/11/30 02:31:32;;;;;;;17.10;13.65;;;;;;;-2.75;100.00;96815.22;1224721;75;2919819;-63
2023/11/30 02:34:05;;;;;;;16.75;13.55;;;;;;;-2.73;100.00;96826.28;1223986;75;2925678;-63
2023/11/30 02:36:38;;;;;;;16.50;13.60;;;;;;;-2.73;100.00;96802.94;1224214;75;2932338;-64
2023/11/30 02:39:13;;;;;;;14.75;11.95;;;;;;;-2.57;100.00;96804.97;1224605;75;2916535;-62
2023/11/30 02:41:45;;;;;;;13.90;10.95;;;;;;;-2.61;100.00;96796.97;1224832;75;2920394;-62
2023/11/30 02:44:19;;;;;;;12.60;10.35;;;;;;;-2.70;100.00;96786.03;1225114;75;2922369;-62
2023/11/30 02:46:52;;;;;;;15.50;12.60;;;;;;;-2.79;100.00;96769.72;1224807;75;2918288;-65
2023/11/30 02:49:24;;;;;;;16.60;13.55;;;;;;;-2.93;100.00;96775.34;1223893;75;2928061;-65
2023/11/30 02:51:57;;;;;;;15.35;13.20;;;;;;;-2.70;100.00;96756.56;1224310;75;2924508;-64
2023/11/30 02:54:32;;;;;;;14.80;11.55;;;;;;;-2.68;100.00;96758.84;1225101;75;2920389;-66
2023/11/30 02:57:04;;;;;;;10.60;9.30;;;;;;;-2.60;100.00;96750.28;1224108;75;2921392;-64
2023/11/30 02:59:37;;;;;;;11.45;8.85;;;;;;;-2.64;100.00;96736.19;1224477;75;2924014;-64
2023/11/30 03:02:11;;;;;;;9.95;7.95;;;;;;;-2.64;100.00;96735.44;1223216;75;2920197;-62
2023/11/30 03:04:44;;;;;;;9.85;7.85;;;;;;;-2.66;100.00;96722.44;1224315;75;2924864;-65
2023/11/30 03:07:17;;;;;;;9.90;7.75;;;;;;;-2.72;100.00;96716.03;1224342;75;2925574;-64
2023/11/30 03:09:52;;;;;;;13.85;11.10;;;;;;;-3.02;100.00;96744.47;1224699;75;2919535;-64
2023/11/30 03:12:25;;;;;;;19.95;14.95;;;;;;;-3.14;100.00;96750.41;1223936;75;2930804;-64
2023/11/30 03:14:57;;;;;;;17.70;14.00;;;;;;;-2.98;100.00;96755.13;1224088;75;2923406;-65
2023/11/30 03:17:30;;;;;;;19.65;14.90;;;;;;;-3.08;100.00;96761.41;1224109;75;2918739;-62
2023/11/30 03:20:02;;;;;;;19.45;15.00;;;;;;;-3.03;100.00;96756.34;1224227;75;2923273;-64
2023/11/30 03:22:35;;;;;;;21.55;16.65;;;;;;;-3.05;100.00;96756.00;1223843;75;2925112;-64
2023/11/30 03:25:11;;;;;;;19.85;15.55;;;;;;;-2.87;100.00;96749.59;1224604;75;2921544;-66
2023/11/30 03:27:44;;;;;;;16.50;13.00;;;;;;;-2.85;100.00;96750.69;1223434;75;2917612;-63
2023/11/30 03:30:17;;;;;;;17.75;11.85;;;;;;;-2.73;100.00;96740.56;1224547;75;2926959;-63
2023/11/30 03:32:49;;;;;;;13.10;11.15;;;;;;;-2.90;100.00;96729.75;1223339;75;2933923;-64
2023/11/30 03:35:22;;;;;;;13.00;9.95;;;;;;;-2.75;100.00;96713.44;1224396;75;2920491;-63
2023/11/30 03:37:54;;;;;;;13.55;11.20;;;;;;;-2.97;100.00;96713.81;1223870;75;2932108;-65
2023/11/30 03:40:29;;;;;;;16.55;13.25;;;;;;;-2.96;100.00;96709.19;1224424;75;2925781;-64
2023/11/30 03:43:02;;;;;;;17.15;14.30;;;;;;;-3.08;100.00;96705.19;1224331;75;2924251;-63
2023/11/30 03:45:34;;;;;;;17.95;14.60;;;;;;;-3.00;100.00;96703.91;1224538;75;2927013;-64
2023/11/30 03:48:08;;;;;;;15.60;12.55;;;;;;;-2.91;100.00;96704.16;1224331;75;2937915;-64
2023/11/30 03:50:40;;;;;;;11.80;10.55;;;;;;;-2.74;100.00;96690.81;1223891;75;2924893;-64
2023/11/30 03:53:13;;;;;;;11.15;9.50;;;;;;;-2.78;100.00;96698.94;1223987;75;2919078;-64
2023/11/30 03:55:48;;;;;;;11.30;9.65;;;;;;;-3.03;100.00;96696.69;1223536;75;2924056;-65
2023/11/30 03:58:21;;;;;;;22.90;17.65;;;;;;;-3.16;100.00;96695.78;1223419;75;2951384;-63
2023/11/30 04:00:53;;;;;;;20.75;16.35;;;;;;;-3.06;100.00;96673.41;1224249;75;2925713;-65
2023/11/30 04:03:26;;;;;;;20.30;15.30;;;;;;;-3.00;100.00;96672.53;1223808;75;2920991;-62
2023/11/30 04:05:58;;;;;;;15.15;12.10;;;;;;;-2.81;100.00;96665.69;1224306;75;2929861;-64
2023/11/30 04:08:31;;;;;;;13.00;11.05;;;;;;;-2.76;100.00;96669.06;1223474;75;2927113;-64
2023/11/30 04:11:07;;;;;;;12.75;10.95;;;;;;;-3.07;100.00;96650.50;1223862;75;2918599;-65
2023/11/30 04:13:39;;;;;;;13.70;11.05;;;;;;;-3.02;100.00;96641.97;1224243;75;2920681;-64
2023/11/30 04:16:13;;;;;;;12.30;10.20;;;;;;;-2.94;100.00;96647.97;1224081;75;2939354;-63
2023/11/30 04:18:46;;;;;;;12.15;9.55;;;;;;;-3.08;100.00;96633.69;1223266;75;2923573;-63
2023/11/30 04:21:20;;;;;;;13.05;9.95;;;;;;;-2.90;100.00;96632.59;1224312;75;2925092;-62
2023/11/30 04:23:53;;;;;;;9.95;8.60;;;;;;;-2.91;100.00;96637.19;1224735;75;2922362;-65
2023/11/30 04:26:29;;;;;;;15.65;12.05;;;;;;;-3.00;100.00;96624.34;1222914;75;2927674;-65
2023/11/30 04:29:02;;;;;;;12.75;9.95;;;;;;;-2.86;100.00;96625.22;1223077;75;2929143;-62
2023/11/30 04:31:35;;;;;;;12.05;9.15;;;;;;;-2.85;100.00;96637.47;1223112;75;2925854;-66
2023/11/30 04:34:08;;;;;;;12.20;9.70;;;;;;;-3.00;100.00;96645.00;1223683;75;2925136;-63
2023/11/30 04:36:41;;;;;;;11.20;8.55;;;;;;;-2.85;100.00;96658.91;1223787;75;2927762;-63
2023/11/30 04:39:14;;;;;;;9.85;8.80;;;;;;;-2.85;100.00;96656.97;1223922;75;2927222;-65
2023/11/30 04:41:49;;;;;;;8.80;7.70;;;;;;;-2.79;100.00;96651.88;1224069;75;2912483;-64
2023/11/30 04:44:22;;;;;;;7.95;7.00;;;;;;;-2.79;100.00;96654.56;1223732;75;2935677;-63
2023/11/30 04:46:55;;;;;;;15.45;13.05;;;;;;;-2.99;100.00;96627.78;1224016;75;2928048;-67
2023/11/30 04:49:27;;;;;;;17.75;14.00;;;;;;;-2.84;100.00;96626.34;1223800;75;2929064;-65
2023/11/30 04:52:00;;;;;;;14.05;10.95;;;;;;;-2.66;100.00;96628.69;1224217;75;2921485;-67
2023/11/30 04:54:32;;;;;;;13.60;10.80;;;;;;;-2.72;100.00;96627.63;1224603;75;2928543;-62
2023/11/30 04:57:08;;;;;;;11.95;10.00;;;;;;;-2.68;100.00;96627.59;1223620;75;2922805;-65
2023/11/30 04:59:40;;;;;;;11.15;9.20;;;;;;;-2.76;100.00;96618.19;1224407;75;2920019;-63
2023/11/30 05:02:13;;;;;;;12.50;10.15;;;;;;;-2.72;100.00;96610.81;1224230;67;2919445;-64
2023/11/30 05:04:45;;;;;;;10.65;9.00;;;;;;;-2.65;100.00;96619.47;1224011;75;2924059;-65
2023/11/30 05:07:18;;;;;;;10.15;8.60;;;;;;;-2.67;100.00;96627.19;1222819;75;2921833;-64
2023/11/30 05:09:50;;;;;;;9.75;8.00;;;;;;;-2.62;100.00;96623.25;1224251;75;2928399;-61
2023/11/30 05:12:26;;;;;;;9.75;7.55;;;;;;;-2.54;100.00;96629.22;1224081;75;2931472;-63
2023/11/30 05:14:58;;;;;;;9.45;7.50;;;;;;;-2.54;100.00;96621.94;1224127;75;2923204;-65
2023/11/30 05:17:31;;;;;;;9.30;7.55;;;;;;;-2.64;100.00;96607.59;1224052;75;2922540;-65
2023/11/30 05:20:04;;;;;;;9.25;8.25;;;;;;;-2.47;100.00;96629.84;1223767;75;2921269;-63
2023/11/30 05:22:37;;;;;;;12.00;9.80;;;;;;;-2.70;100.00;96632.59;1222880;75;2927605;-63
2023/11/30 05:25:11;;;;;;;15.85;12.20;;;;;;;-2.67;100.00;96621.81;1225483;75;2921948;-65
2023/11/30 05:27:46;;;;;;;13.95;11.50;;;;;;;-2.63;100.00;96627.09;1224044;75;2936369;-66
2023/11/30 05:30:18;;;;;;;13.20;11.65;;;;;;;-2.50;100.00;96624.53;1223841;75;2926896;-64
2023/11/30 05:32:51;;;;;;;15.25;12.10;;;;;;;-2.64;100.00;96639.00;1224800;75;2923672;-63
2023/11/30 05:35:24;;;;;;;15.35;12.60;;;;;;;-2.55;100.00;96620.41;1223930;75;2921173;-63
2023/11/30 05:37:57;;;;;;;13.85;11.55;;;;;;;-2.50;100.00;96627.22;1223967;75;2925117;-64
2023/11/30 05:40:29;;;;;;;16.45;12.50;;;;;;;-2.42;100.00;96617.88;1223907;75;2922631;-63
2023/11/30 05:43:05;;;;;;;11.40;10.20;;;;;;;-2.35;100.00;96615.06;1224196;75;2918649;-63
2023/11/30 05:45:37;;;;;;;15.70;12.60;;;;;;;-2.42;100.00;96612.53;1224448;75;2921461;-65
2023/11/30 05:48:10;;;;;;;11.85;10.15;;;;;;;-2.29;100.00;96618.72;1224266;75;2925045;-60
2023/11/30 05:50:43;;;;;;;14.50;12.15;;;;;;;-2.43;100.00;96621.72;1223978;75;2932482;-64
2023/11/30 05:53:15;;;;;;;13.55;10.85;;;;;;;-2.31;100.00;96628.38;1222359;75;2926547;-64
2023/11/30 05:55:48;;;;;;;14.85;10.60;;;;;;;-2.29;100.00;96624.09;1224326;75;2925495;-66
2023/11/30 05:58:23;;;;;;;11.45;8.90;;;;;;;-2.20;100.00;96621.59;1224594;75;2923546;-63
2023/11/30 06:00:57;;;;;;;12.15;9.80;;;;;;;-2.15;100.00;96628.41;1223855;75;2923927;-59
2023/11/30 06:03:29;;;;;;;10.25;8.15;;;;;;;-2.12;100.00;96637.53;1224680;75;2919568;-62
2023/11/30 06:06:02;;;;;;;9.85;7.70;;;;;;;-2.06;100.00;96638.56;1187907;75;5796342;-64
2023/11/30 06:08:34;;;;;;;9.85;7.95;;;;;;;-2.11;100.00;96631.78;1223174;75;2926299;-64
2023/11/30 06:11:08;;;;;;;10.65;8.00;;;;;;;-2.21;100.00;96632.75;1223023;75;2930645;-65
2023/11/30 06:13:43;;;;;;;21.00;15.85;;;;;;;-2.44;100.00;96620.97;1224089;75;2922613;-63
2023/11/30 06:16:16;;;;;;;23.45;18.75;;;;;;;-2.21;100.00;96622.78;1223242;75;2925523;-64
2023/11/30 06:18:48;;;;;;;17.60;14.30;;;;;;;-2.00;100.00;96626.16;1223876;75;2929345;-64
2023/11/30 06:21:21;;;;;;;13.80;11.85;;;;;;;-2.03;100.00;96627.00;1210088;75;3924740;-63
2023/11/30 06:23:53;;;;;;;16.85;12.80;;;;;;;-2.17;100.00;96618.09;1223280;75;2926273;-64
2023/11/30 06:26:26;;;;;;;20.20;15.80;;;;;;;-2.31;100.00;96617.63;1222946;75;2927922;-62
2023/11/30 06:29:01;;;;;;;24.40;19.10;;;;;;;-2.31;100.00;96626.44;1223599;75;2923064;-64
2023/11/30 06:31:34;;;;;;;24.15;19.00;;;;;;;-2.19;100.00;96628.50;1223591;75;2924120;-60
2023/11/30 06:34:06;;;;;;;20.75;16.70;;;;;;;-2.08;100.00;96635.53;1223687;75;2923124;-60
2023/11/30 06:36:39;;;;;;;19.10;15.35;;;;;;;-2.00;100.00;96636.88;1223890;75;2934733;-65
2023/11/30 06:39:12;;;;;;;18.35;13.75;;;;;;;-1.98;100.00;96643.34;1224501;75;2920159;-62
2023/11/30 06:41:44;;;;;;;15.05;12.75;;;;;;;-1.96;100.00;96638.31;1224005;75;2925515;-62
2023/11/30 06:44:20;;;;;;;14.10;11.00;;;;;;;-1.77;100.00;96633.31;1223980;75;2919158;-67
2023/11/30 06:46:52;;;;;;;13.05;10.70;;;;;;;-1.87;100.00;96632.41;1224147;75;2925581;-64
2023/11/30 06:49:26;;;;;;;13.90;12.00;;;;;;;-1.90;100.00;96632.47;1223270;75;2924902;-65
2023/11/30 06:52:00;;;;;;;15.65;13.40;;;;;;;-1.88;100.00;96628.19;1223663;75;2930200;-66
2023/11/30 06:54:33;;;;;;;14.10;11.65;;;;;;;-1.65;100.00;96637.28;1224466;75;2921109;-63
2023/11/30 06:57:05;;;;;;;12.60;10.40;;;;;;;-1.57;100.00;96644.72;1223816;75;2919043;-65
2023/11/30 06:59:43;;;;;;;12.95;10.25;;;;;;;-1.77;100.00;96639.44;1223347;75;2922466;-65
2023/11/30 07:02:15;;;;;;;16.80;13.55;;;;;;;-1.70;100.00;96630.47;1223987;75;2923691;-64
2023/11/30 07:04:48;;;;;;;14.50;12.35;;;;;;;-1.52;100.00;96630.03;1223736;75;2927444;-65
2023/11/30 07:07:20;;;;;;;12.90;10.50;;;;;;;-1.41;100.00;96630.53;1223485;75;2923785;-63
2023/11/30 07:09:53;;;;;;;11.55;9.90;;;;;;;-1.44;100.00;96633.31;1223417;75;2931309;-62
2023/11/30 07:12:26;;;;;;;17.10;13.95;;;;;;;-1.60;100.00;96618.72;1222392;75;2925202;-63
2023/11/30 07:15:01;;;;;;;16.00;12.85;;;;;;;-1.44;100.00;96628.72;1222993;75;2920561;-64
2023/11/30 07:17:33;;;;;;;22.15;17.00;;;;;;;-1.72;100.00;96630.88;1223697;75;2918799;-61
2023/11/30 07:20:06;;;;;;;21.10;14.60;;;;;;;-1.54;100.00;96630.47;1223185;75;2931485;-60
2023/11/30 07:22:39;;;;;;;16.50;14.10;;;;;;;-1.47;100.00;96634.16;1223223;75;2932490;-65
2023/11/30 07:25:12;;;;;;;17.20;13.55;;;;;;;-1.42;100.00;96625.59;1223800;75;2923079;-62
2023/11/30 07:27:45;;;;;;;14.45;12.05;;;;;;;-1.21;100.00;96630.44;1222893;75;2923124;-63
2023/11/30 07:30:21;;;;;;;13.30;10.70;;;;;;;-1.12;100.00;96637.91;1224341;75;2926591;-62
2023/11/30 07:32:56;;;;;;;11.85;9.75;;;;;;;-1.03;100.00;96631.91;1223464;75;2928940;-62
2023/11/30 07:35:29;;;;;;;10.80;9.00;;;;;;;-1.05;100.00;96634.28;1222303;75;2931651;-65
2023/11/30 07:38:01;;;;;;;9.00;7.90;;;;;;;-1.01;100.00;96629.53;1224208;75;2919814;-61
2023/11/30 07:40:34;;;;;;;11.45;9.15;;;;;;;-1.03;100.00;96629.22;1223189;75;2922019;-65
2023/11/30 07:43:06;;;;;;;14.95;12.65;;;;;;;-1.17;100.00;96622.31;1223478;75;2920280;-63
2023/11/30 07:45:43;;;;;;;17.50;13.30;;;;;;;-1.15;100.00;96626.06;1223762;75;2917729;-66
2023/11/30 07:48:16;;;;;;;19.25;15.80;;;;;;;-1.22;100.00;96622.81;1222971;75;2926868;-63
2023/11/30 07:50:48;;;;;;;22.75;18.15;;;;;;;-1.21;100.00;96617.00;1222862;75;2943097;-65
2023/11/30 07:53:23;;;;;;;18.60;14.35;;;;;;;-1.10;100.00;96606.75;1223976;75;2924429;-62
2023/11/30 07:55:56;;;;;;;21.00;16.90;;;;;;;-1.27;100.00;96601.81;1222776;75;2928900;-66
2023/11/30 07:58:29;;;;;;;23.70;18.65;;;;;;;-1.09;100.00;96607.50;1223403;75;2927779;-65
2023/11/30 08:01:05;;;;;;;18.95;15.30;;;;;;;-0.93;100.00;96604.03;1223952;75;2935685;-60
2023/11/30 08:03:37;;;;;;;16.85;13.75;;;;;;;-0.91;100.00;96597.03;1223329;75;2940420;-67
2023/11/30 08:06:11;;;;;;;14.60;11.95;;;;;;;-0.75;100.00;96582.03;1223815;75;2926365;-65
2023/11/30 08:08:44;;;;;;;12.55;10.05;;;;;;;-0.65;100.00;96589.03;1223024;75;2927263;-63
2023/11/30 08:11:17;;;;;;;11.60;9.80;;;;;;;-0.63;100.00;96581.31;1223076;75;2923732;-62
2023/11/30 08:13:50;;;;;;;14.55;11.65;;;;;;;-0.92;100.00;96579.41;1223278;75;2929722;-62
2023/11/30 08:16:25;;;;;;;16.25;12.95;;;;;;;-0.93;100.00;96571.78;1224331;75;2917861;-62
2023/11/30 08:18:58;;;;;;;15.45;12.40;;;;;;;-0.69;100.00;96564.97;1223311;75;2923904;-67
2023/11/30 08:21:31;;;;;;;13.55;11.05;;;;;;;-0.54;100.00;96559.94;1223877;75;2922782;-63
2023/11/30 08:24:04;;;;;;;13.00;10.60;;;;;;;-0.54;100.00;96559.94;1223720;75;2919667;-64
2023/11/30 08:26:36;;;;;;;15.00;11.80;;;;;;;-0.79;100.00;96566.03;1223143;75;2920262;-64
2023/11/30 08:29:09;;;;;;;28.25;19.95;;;;;;;-1.11;100.00;96573.03;1223523;75;2927485;-63
2023/11/30 08:31:44;;;;;;;25.25;20.50;;;;;;;-1.08;100.00;96576.78;1224473;75;2924005;-65
2023/11/30 08:34:17;;;;;;;27.25;20.25;;;;;;;-1.02;100.00;96575.09;1222970;75;2927313;-64
2023/11/30 08:36:50;;;;;;;29.75;21.70;;;;;;;-1.09;100.00;96578.69;1224343;75;2933344;-62
2023/11/30 08:39:23;;;;;;;28.50;22.05;;;;;;;-1.07;100.00;96570.97;1224476;75;2927512;-64
2023/11/30 08:41:56;;;;;;;31.05;23.50;;;;;;;-1.12;100.00;96576.13;1223749;75;2929654;-65
2023/11/30 08:44:29;;;;;;;30.90;23.65;;;;;;;-1.23;100.00;96578.31;1224430;75;2925746;-65
2023/11/30 08:47:04;;;;;;;29.80;23.40;;;;;;;-1.15;100.00;96568.94;1224326;75;2936781;-64
2023/11/30 08:49:37;;;;;;;29.20;21.20;;;;;;;-1.05;100.00;96570.56;1223661;75;2926961;-62
2023/11/30 08:52:10;;;;;;;32.70;23.80;;;;;;;-1.22;100.00;96561.06;1224150;75;2920800;-64
2023/11/30 08:54:43;;;;;;;30.85;23.35;;;;;;;-1.36;100.00;96556.81;1224745;75;2918824;-63
2023/11/30 08:57:15;;;;;;;34.75;23.10;;;;;;;-1.27;100.00;96569.59;1223854;75;2927142;-62
2023/11/30 08:59:49;;;;;;;27.15;21.75;;;;;;;-1.26;100.00;96573.81;1223969;75;2934312;-65
2023/11/30 09:02:24;;;;;;;29.15;22.90;;;;;;;-1.31;100.00;96561.66;1223982;75;2931219;-63
2023/11/30 09:04:57;;;;;;;28.25;22.25;;;;;;;-1.15;100.00;96566.25;1223616;75;2925504;-62
2023/11/30 09:07:30;;;;;;;30.55;22.95;;;;;;;-1.12;100.00;96554.66;1224582;75;2919612;-64
2023/11/30 09:10:04;;;;;;;25.65;19.20;;;;;;;-0.97;100.00;96560.38;1224202;75;2924356;-63
2023/11/30 09:12:37;;;;;;;29.25;21.15;;;;;;;-0.91;100.00;96554.06;1223635;75;2927982;-63
2023/11/30 09:15:12;;;;;;;26.55;20.25;;;;;;;-0.93;100.00;96564.47;1221495;75;3075642;-60
2023/11/30 09:17:48;;;;;;;23.85;18.75;;;;;;;-0.79;100.00;96565.28;1223309;75;2928530;-64
2023/11/30 09:20:22;;;;;;;23.95;19.00;;;;;;;-0.65;100.00;96541.44;1224001;75;2931189;-62
2023/11/30 09:22:55;;;;;;;22.60;17.55;;;;;;;-0.55;100.00;96534.25;1223359;75;2926305;-64
2023/11/30 09:25:29;;;;;;;27.85;20.70;;;;;;;-0.62;100.00;96547.88;1223480;75;2924563;-62
2023/11/30 09:28:01;;;;;;;34.30;25.65;;;;;;;-0.81;100.00;96536.13;1224599;75;2924770;-63
2023/11/30 09:30:34;;;;;;;30.85;23.05;;;;;;;-0.50;100.00;96533.72;1222944;75;2926728;-64
2023/11/30 09:33:10;;;;;;;28.75;19.70;;;;;;;-0.28;100.00;96531.13;1223752;75;2919830;-62
2023/11/30 09:35:42;;;;;;;26.70;19.15;;;;;;;-0.28;100.00;96514.25;1223720;75;2920244;-66
2023/11/30 09:38:15;;;;;;;19.00;14.95;;;;;;;-0.06;100.00;96528.53;1224046;75;2928659;-62
2023/11/30 09:40:47;;;;;;;17.95;14.00;;;;;;;0.14;100.00;96522.88;1223510;75;2939078;-62
2023/11/30 09:43:20;;;;;;;17.40;13.25;;;;;;;0.03;100.00;96519.06;1223410;75;2931748;-63
2023/11/30 09:45:54;;;;;;;30.10;21.75;;;;;;;-0.45;100.00;96522.41;1223761;75;2919262;-63
2023/11/30 09:48:30;;;;;;;26.80;20.95;;;;;;;-0.11;100.00;96518.31;1223549;75;2935981;-65
2023/11/30 09:51:02;;;;;;;22.10;16.95;;;;;;;0.13;100.00;96512.56;1223798;75;2925858;-63
2023/11/30 09:53:36;;;;;;;22.55;16.30;;;;;;;0.19;100.00;96505.44;1223009;75;2923737;-62
2023/11/30 09:56:10;;;;;;;16.95;14.30;;;;;;;0.27;100.00;96501.34;1222908;75;2920945;-66
2023/11/30 09:58:43;;;;;;;17.10;13.15;;;;;;;0.37;100.00;96488.72;1222775;75;2933943;-64
2023/11/30 10:01:16;;;;;;;20.60;14.50;;;;;;;-0.02;100.00;96496.88;1222347;75;2931988;-63
2023/11/30 10:03:51;;;;;;;20.25;15.00;;;;;;;0.09;100.00;96495.78;1222414;75;2929971;-63
2023/11/30 10:06:24;;;;;;;18.35;13.85;;;;;;;0.22;100.00;96480.38;1222241;75;2927467;-63
2023/11/30 10:09:04;;;;;;;32.40;21.40;;;;;;;-0.17;100.00;96470.88;1222289;75;2935642;-64
2023/11/30 10:11:38;;;;;;;22.60;16.85;;;;;;;0.20;100.00;96466.59;1222817;75;2936942;-63
2023/11/30 10:14:10;;;;;;;24.15;16.90;;;;;;;0.17;100.00;96456.72;1222882;75;2924604;-63
2023/11/30 10:16:44;;;;;;;20.85;16.60;;;;;;;0.29;100.00;96466.69;1223062;75;2923449;-62
2023/11/30 10:19:19;;;;;;;21.15;16.50;;;;;;;0.44;100.00;96468.88;1222780;75;2931072;-63
2023/11/30 10:21:51;;;;;;;25.30;19.30;;;;;;;0.09;100.00;96458.88;1223038;75;2921142;-62
2023/11/30 10:24:24;;;;;;;30.40;20.85;;;;;;;-0.05;100.00;96454.72;1222557;75;2930806;-63
2023/11/30 10:27:00;;;;;;;26.05;19.65;;;;;;;0.43;100.00;96435.81;1223282;75;2925819;-65
2023/11/30 10:29:37;;;;;;;29.70;20.90;;;;;;;-0.15;100.00;96444.28;1221487;75;2939286;-64
2023/11/30 10:32:12;;;;;;;28.50;21.50;;;;;;;-0.13;100.00;96442.66;1223458;75;2931473;-65
2023/11/30 10:34:52;;;;;;;27.60;20.80;;;;;;;-0.08;100.00;96446.75;1222454;75;2925941;-63
2023/11/30 10:37:29;;;;;;;27.00;19.65;;;;;;;0.10;100.00;96438.84;1222411;75;2931923;-65
2023/11/30 10:40:11;;;;;;;31.15;22.20;;;;;;;-0.20;100.00;96429.47;1223707;75;2922365;-62
2023/11/30 10:42:48;;;;;;;31.45;21.30;;;;;;;-0.14;100.00;96437.75;1220116;75;3027707;-63
2023/11/30 10:45:23;;;;;;;31.50;21.00;;;;;;;0.11;100.00;96426.16;1224297;75;2925900;-63
2023/11/30 10:47:57;;;;;;;23.10;17.75;;;;;;;0.41;100.00;96417.41;1223591;75;2926378;-63
2023/11/30 10:50:34;;;;;;;22.05;16.90;;;;;;;0.53;100.00;96415.09;1224232;75;2930139;-63
2023/11/30 10:53:11;;;;;;;18.90;15.15;;;;;;;0.82;100.00;96401.38;1223337;75;2932849;-62
2023/11/30 10:55:45;;;;;;;22.30;16.00;;;;;;;0.63;100.00;96403.19;1223833;75;2932246;-63
2023/11/30 10:58:27;;;;;;;26.25;17.05;;;;;;;0.71;100.00;96411.78;1224230;75;2932862;-66
2023/11/30 11:01:00;;;;;;;18.35;15.15;;;;;;;0.77;100.00;96410.00;1225610;75;2922187;-64
2023/11/30 11:03:33;;;;;;;22.90;15.60;;;;;;;0.65;100.00;96408.91;1224657;75;2927121;-65
2023/11/30 11:06:13;;;;;;;28.30;19.30;;;;;;;0.38;100.00;96406.75;1222038;75;2922828;-68
2023/11/30 11:09:03;;;;;;;27.55;19.25;;;;;;;0.61;100.00;96392.13;1224341;75;2921499;-66
2023/11/30 11:11:36;;;;;;;21.75;16.05;;;;;;;0.95;100.00;96399.31;1223526;75;2929943;-63
2023/11/30 11:14:09;;;;;;;33.85;21.75;;;;;;;0.57;100.00;96386.84;1224725;75;2920487;-66
2023/11/30 11:16:44;;;;;;;27.00;17.40;;;;;;;0.85;100.00;96379.66;1224548;75;2917159;-63
2023/11/30 11:19:18;;;;;;;19.70;14.40;;;;;;;0.98;100.00;96378.81;1223850;75;2927270;-63
2023/11/30 11:21:54;;;;;;;21.25;14.40;;;;;;;1.02;100.00;96369.41;1224573;75;2920974;-65
2023/11/30 11:24:27;;;;;;;20.30;13.15;;;;;;;1.18;100.00;96381.13;1223804;75;2920644;-61